Terminal Aerodrome Forecast
Issued by NWS Sterling, VA

Current Version | Previous Version | Text Only | Print | Product List | Glossary Off
Versions: 1 2 3 4 5 6 7 8 9 10 11 12 13 14 15 16 17 18 19 20 21 22 23 24

000
FTUS41 KLWX 242100 AAA
TAFDCA
TAF AMD
KDCA 242105Z 2421/2518 20011G20KT P6SM FEW050
     FM250000 22009KT P6SM BKN250
     FM250800 28005KT P6SM SCT060=

USA.gov is the U.S. government's official web portal to all federal, state and local government web resources and services.